sensor_id;sensor_type;location;lat;lon;timestamp;P1;durP1;ratioP1;P2;durP2;ratioP2
11960;SDS011;6040;49.358;11.140;2022-08-03T00:00:56;4.77;;;3.33;;
11960;SDS011;6040;49.358;11.140;2022-08-03T00:03:24;4.10;;;3.40;;
11960;SDS011;6040;49.358;11.140;2022-08-03T00:05:51;4.13;;;3.50;;
11960;SDS011;6040;49.358;11.140;2022-08-03T00:08:18;4.57;;;3.60;;
11960;SDS011;6040;49.358;11.140;2022-08-03T00:10:45;4.37;;;3.70;;
11960;SDS011;6040;49.358;11.140;2022-08-03T00:13:12;4.17;;;3.77;;
11960;SDS011;6040;49.358;11.140;2022-08-03T00:15:39;5.73;;;4.07;;
11960;SDS011;6040;49.358;11.140;2022-08-03T00:18:06;4.27;;;3.57;;
11960;SDS011;6040;49.358;11.140;2022-08-03T00:20:34;4.10;;;3.70;;
11960;SDS011;6040;49.358;11.140;2022-08-03T00:23:02;5.27;;;4.13;;
11960;SDS011;6040;49.358;11.140;2022-08-03T00:25:29;5.20;;;3.93;;
11960;SDS011;6040;49.358;11.140;2022-08-03T00:27:56;5.17;;;4.30;;
11960;SDS011;6040;49.358;11.140;2022-08-03T00:30:23;4.03;;;3.73;;
11960;SDS011;6040;49.358;11.140;2022-08-03T00:32:50;3.83;;;3.53;;
11960;SDS011;6040;49.358;11.140;2022-08-03T00:35:17;4.33;;;3.77;;
11960;SDS011;6040;49.358;11.140;2022-08-03T00:37:45;6.40;;;4.00;;
11960;SDS011;6040;49.358;11.140;2022-08-03T00:40:12;3.90;;;3.60;;
11960;SDS011;6040;49.358;11.140;2022-08-03T00:42:47;4.63;;;3.97;;
11960;SDS011;6040;49.358;11.140;2022-08-03T00:45:15;4.47;;;3.90;;
11960;SDS011;6040;49.358;11.140;2022-08-03T00:47:43;4.00;;;3.70;;
11960;SDS011;6040;49.358;11.140;2022-08-03T00:50:10;6.80;;;4.07;;
11960;SDS011;6040;49.358;11.140;2022-08-03T00:52:37;5.03;;;4.03;;
11960;SDS011;6040;49.358;11.140;2022-08-03T00:55:06;6.83;;;4.03;;
11960;SDS011;6040;49.358;11.140;2022-08-03T00:57:33;4.00;;;3.60;;
11960;SDS011;6040;49.358;11.140;2022-08-03T01:00:00;4.17;;;3.77;;
11960;SDS011;6040;49.358;11.140;2022-08-03T01:02:28;6.20;;;3.93;;
11960;SDS011;6040;49.358;11.140;2022-08-03T01:04:55;4.40;;;4.00;;
11960;SDS011;6040;49.358;11.140;2022-08-03T01:07:24;3.83;;;3.53;;
11960;SDS011;6040;49.358;11.140;2022-08-03T01:10:04;4.03;;;3.73;;
11960;SDS011;6040;49.358;11.140;2022-08-03T01:12:42;4.63;;;3.83;;
11960;SDS011;6040;49.358;11.140;2022-08-03T01:15:24;5.10;;;3.73;;
11960;SDS011;6040;49.358;11.140;2022-08-03T01:18:02;4.07;;;3.70;;
11960;SDS011;6040;49.358;11.140;2022-08-03T01:20:35;3.97;;;3.60;;
11960;SDS011;6040;49.358;11.140;2022-08-03T01:23:09;4.40;;;4.00;;
11960;SDS011;6040;49.358;11.140;2022-08-03T01:25:58;4.80;;;4.27;;
11960;SDS011;6040;49.358;11.140;2022-08-03T01:28:47;4.20;;;3.90;;
11960;SDS011;6040;49.358;11.140;2022-08-03T01:31:38;4.10;;;3.73;;
11960;SDS011;6040;49.358;11.140;2022-08-03T01:34:09;4.23;;;3.83;;
11960;SDS011;6040;49.358;11.140;2022-08-03T01:36:43;4.27;;;3.93;;
11960;SDS011;6040;49.358;11.140;2022-08-03T01:39:16;4.23;;;3.83;;
11960;SDS011;6040;49.358;11.140;2022-08-03T01:41:45;4.50;;;4.10;;
11960;SDS011;6040;49.358;11.140;2022-08-03T01:44:15;4.60;;;4.20;;
11960;SDS011;6040;49.358;11.140;2022-08-03T01:46:44;5.63;;;4.10;;
11960;SDS011;6040;49.358;11.140;2022-08-03T01:49:15;4.33;;;3.93;;
11960;SDS011;6040;49.358;11.140;2022-08-03T01:51:42;4.10;;;3.70;;
11960;SDS011;6040;49.358;11.140;2022-08-03T01:54:12;4.30;;;3.90;;
11960;SDS011;6040;49.358;11.140;2022-08-03T01:56:39;9.43;;;4.20;;
11960;SDS011;6040;49.358;11.140;2022-08-03T01:59:09;5.90;;;4.20;;
11960;SDS011;6040;49.358;11.140;2022-08-03T02:01:39;4.40;;;4.00;;
11960;SDS011;6040;49.358;11.140;2022-08-03T02:04:08;4.30;;;3.90;;
11960;SDS011;6040;49.358;11.140;2022-08-03T02:06:38;5.87;;;3.93;;
11960;SDS011;6040;49.358;11.140;2022-08-03T02:09:05;5.27;;;4.10;;
11960;SDS011;6040;49.358;11.140;2022-08-03T02:11:33;6.23;;;4.37;;
11960;SDS011;6040;49.358;11.140;2022-08-03T02:14:03;4.83;;;3.83;;
11960;SDS011;6040;49.358;11.140;2022-08-03T02:16:31;4.73;;;4.13;;
11960;SDS011;6040;49.358;11.140;2022-08-03T02:19:00;4.67;;;4.10;;
11960;SDS011;6040;49.358;11.140;2022-08-03T02:21:31;4.10;;;3.80;;
11960;SDS011;6040;49.358;11.140;2022-08-03T02:24:01;4.70;;;4.30;;
11960;SDS011;6040;49.358;11.140;2022-08-03T02:26:29;4.50;;;4.10;;
11960;SDS011;6040;49.358;11.140;2022-08-03T02:28:58;5.77;;;4.33;;
11960;SDS011;6040;49.358;11.140;2022-08-03T02:31:28;4.60;;;4.10;;
11960;SDS011;6040;49.358;11.140;2022-08-03T02:34:00;4.67;;;4.20;;
11960;SDS011;6040;49.358;11.140;2022-08-03T02:36:29;4.50;;;4.10;;
11960;SDS011;6040;49.358;11.140;2022-08-03T02:39:01;5.43;;;4.57;;
11960;SDS011;6040;49.358;11.140;2022-08-03T02:41:30;4.30;;;4.00;;
11960;SDS011;6040;49.358;11.140;2022-08-03T02:44:01;4.27;;;3.87;;
11960;SDS011;6040;49.358;11.140;2022-08-03T02:46:33;4.83;;;4.43;;
11960;SDS011;6040;49.358;11.140;2022-08-03T02:49:03;5.00;;;4.27;;
11960;SDS011;6040;49.358;11.140;2022-08-03T02:51:33;5.63;;;4.70;;
11960;SDS011;6040;49.358;11.140;2022-08-03T02:54:02;7.57;;;4.30;;
11960;SDS011;6040;49.358;11.140;2022-08-03T02:56:29;5.23;;;4.23;;
11960;SDS011;6040;49.358;11.140;2022-08-03T02:58:57;5.17;;;4.57;;
11960;SDS011;6040;49.358;11.140;2022-08-03T03:01:26;5.10;;;4.60;;
11960;SDS011;6040;49.358;11.140;2022-08-03T03:03:54;6.80;;;4.00;;
11960;SDS011;6040;49.358;11.140;2022-08-03T03:06:22;4.63;;;4.23;;
11960;SDS011;6040;49.358;11.140;2022-08-03T03:08:52;4.70;;;4.27;;
11960;SDS011;6040;49.358;11.140;2022-08-03T03:11:20;4.77;;;4.33;;
11960;SDS011;6040;49.358;11.140;2022-08-03T03:13:47;5.20;;;4.20;;
11960;SDS011;6040;49.358;11.140;2022-08-03T03:16:15;6.17;;;4.43;;
11960;SDS011;6040;49.358;11.140;2022-08-03T03:18:43;5.87;;;4.40;;
11960;SDS011;6040;49.358;11.140;2022-08-03T03:21:14;6.80;;;4.57;;
11960;SDS011;6040;49.358;11.140;2022-08-03T03:23:44;6.00;;;4.20;;
11960;SDS011;6040;49.358;11.140;2022-08-03T03:26:13;4.60;;;4.20;;
11960;SDS011;6040;49.358;11.140;2022-08-03T03:28:40;6.27;;;4.63;;
11960;SDS011;6040;49.358;11.140;2022-08-03T03:31:08;4.87;;;4.47;;
11960;SDS011;6040;49.358;11.140;2022-08-03T03:33:35;6.27;;;4.57;;
11960;SDS011;6040;49.358;11.140;2022-08-03T03:36:04;5.17;;;4.63;;
11960;SDS011;6040;49.358;11.140;2022-08-03T03:38:32;5.30;;;4.70;;
11960;SDS011;6040;49.358;11.140;2022-08-03T03:40:59;6.83;;;4.50;;
11960;SDS011;6040;49.358;11.140;2022-08-03T03:43:28;5.20;;;4.70;;
11960;SDS011;6040;49.358;11.140;2022-08-03T03:45:55;4.67;;;4.27;;
11960;SDS011;6040;49.358;11.140;2022-08-03T03:48:23;6.07;;;4.40;;
11960;SDS011;6040;49.358;11.140;2022-08-03T03:50:51;4.80;;;4.40;;
11960;SDS011;6040;49.358;11.140;2022-08-03T03:53:18;6.77;;;4.50;;
11960;SDS011;6040;49.358;11.140;2022-08-03T03:55:45;5.43;;;4.93;;
11960;SDS011;6040;49.358;11.140;2022-08-03T03:58:12;5.93;;;4.50;;
11960;SDS011;6040;49.358;11.140;2022-08-03T04:00:41;5.97;;;4.90;;
11960;SDS011;6040;49.358;11.140;2022-08-03T04:03:09;5.40;;;4.87;;
11960;SDS011;6040;49.358;11.140;2022-08-03T04:05:37;4.73;;;4.33;;
11960;SDS011;6040;49.358;11.140;2022-08-03T04:08:21;6.77;;;4.73;;
11960;SDS011;6040;49.358;11.140;2022-08-03T04:11:08;7.43;;;4.80;;
11960;SDS011;6040;49.358;11.140;2022-08-03T04:13:41;5.87;;;4.10;;
11960;SDS011;6040;49.358;11.140;2022-08-03T04:16:11;5.77;;;4.50;;
11960;SDS011;6040;49.358;11.140;2022-08-03T04:18:41;4.97;;;4.40;;
11960;SDS011;6040;49.358;11.140;2022-08-03T04:21:12;5.30;;;4.80;;
11960;SDS011;6040;49.358;11.140;2022-08-03T04:23:43;5.40;;;4.80;;
11960;SDS011;6040;49.358;11.140;2022-08-03T04:26:14;8.90;;;5.23;;
11960;SDS011;6040;49.358;11.140;2022-08-03T04:28:44;5.77;;;4.53;;
11960;SDS011;6040;49.358;11.140;2022-08-03T04:31:15;11.27;;;4.33;;
11960;SDS011;6040;49.358;11.140;2022-08-03T04:33:43;10.23;;;5.07;;
11960;SDS011;6040;49.358;11.140;2022-08-03T04:36:16;10.73;;;4.63;;
11960;SDS011;6040;49.358;11.140;2022-08-03T04:38:51;9.60;;;5.00;;
11960;SDS011;6040;49.358;11.140;2022-08-03T04:41:21;7.13;;;4.60;;
11960;SDS011;6040;49.358;11.140;2022-08-03T04:43:52;5.40;;;4.73;;
11960;SDS011;6040;49.358;11.140;2022-08-03T04:46:23;9.90;;;4.97;;
11960;SDS011;6040;49.358;11.140;2022-08-03T04:48:52;5.37;;;4.87;;
11960;SDS011;6040;49.358;11.140;2022-08-03T04:51:20;5.57;;;4.83;;
11960;SDS011;6040;49.358;11.140;2022-08-03T04:53:48;6.97;;;4.80;;
11960;SDS011;6040;49.358;11.140;2022-08-03T04:56:15;5.90;;;4.67;;
11960;SDS011;6040;49.358;11.140;2022-08-03T04:58:42;5.33;;;4.80;;
11960;SDS011;6040;49.358;11.140;2022-08-03T05:01:09;5.10;;;4.60;;
11960;SDS011;6040;49.358;11.140;2022-08-03T05:03:37;5.83;;;4.47;;
11960;SDS011;6040;49.358;11.140;2022-08-03T05:06:04;8.33;;;4.67;;
11960;SDS011;6040;49.358;11.140;2022-08-03T05:08:32;9.93;;;5.40;;
11960;SDS011;6040;49.358;11.140;2022-08-03T05:10:59;7.73;;;4.97;;
11960;SDS011;6040;49.358;11.140;2022-08-03T05:13:26;6.50;;;4.80;;
11960;SDS011;6040;49.358;11.140;2022-08-03T05:15:53;5.63;;;5.00;;
11960;SDS011;6040;49.358;11.140;2022-08-03T05:18:19;5.23;;;4.70;;
11960;SDS011;6040;49.358;11.140;2022-08-03T05:20:48;8.53;;;5.30;;
11960;SDS011;6040;49.358;11.140;2022-08-03T05:23:15;6.03;;;5.30;;
11960;SDS011;6040;49.358;11.140;2022-08-03T05:25:42;5.53;;;4.60;;
11960;SDS011;6040;49.358;11.140;2022-08-03T05:28:09;7.37;;;4.80;;
11960;SDS011;6040;49.358;11.140;2022-08-03T05:30:35;6.37;;;4.57;;
11960;SDS011;6040;49.358;11.140;2022-08-03T05:33:03;4.97;;;4.47;;
11960;SDS011;6040;49.358;11.140;2022-08-03T05:35:30;5.57;;;4.30;;
11960;SDS011;6040;49.358;11.140;2022-08-03T05:38:00;6.23;;;4.03;;
11960;SDS011;6040;49.358;11.140;2022-08-03T05:40:27;6.00;;;4.00;;
11960;SDS011;6040;49.358;11.140;2022-08-03T05:42:54;4.73;;;4.30;;
11960;SDS011;6040;49.358;11.140;2022-08-03T05:45:21;5.43;;;4.23;;
11960;SDS011;6040;49.358;11.140;2022-08-03T05:47:48;7.20;;;4.53;;
11960;SDS011;6040;49.358;11.140;2022-08-03T05:50:16;6.33;;;4.53;;
11960;SDS011;6040;49.358;11.140;2022-08-03T05:52:43;5.97;;;4.30;;
11960;SDS011;6040;49.358;11.140;2022-08-03T05:55:11;5.60;;;4.13;;
11960;SDS011;6040;49.358;11.140;2022-08-03T05:57:39;5.10;;;4.13;;
11960;SDS011;6040;49.358;11.140;2022-08-03T06:00:07;4.70;;;4.23;;
11960;SDS011;6040;49.358;11.140;2022-08-03T06:02:35;5.97;;;4.10;;
11960;SDS011;6040;49.358;11.140;2022-08-03T06:05:02;4.80;;;4.13;;
11960;SDS011;6040;49.358;11.140;2022-08-03T06:07:30;5.47;;;4.10;;
11960;SDS011;6040;49.358;11.140;2022-08-03T06:09:57;4.60;;;4.10;;
11960;SDS011;6040;49.358;11.140;2022-08-03T06:12:27;5.10;;;4.00;;
11960;SDS011;6040;49.358;11.140;2022-08-03T06:14:54;4.80;;;4.30;;
11960;SDS011;6040;49.358;11.140;2022-08-03T06:17:21;8.70;;;4.50;;
11960;SDS011;6040;49.358;11.140;2022-08-03T06:19:50;6.57;;;4.23;;
11960;SDS011;6040;49.358;11.140;2022-08-03T06:22:17;6.00;;;4.00;;
11960;SDS011;6040;49.358;11.140;2022-08-03T06:24:44;5.57;;;4.00;;
11960;SDS011;6040;49.358;11.140;2022-08-03T06:27:11;5.37;;;3.83;;
11960;SDS011;6040;49.358;11.140;2022-08-03T06:29:39;6.60;;;3.83;;
11960;SDS011;6040;49.358;11.140;2022-08-03T06:32:06;5.83;;;3.83;;
11960;SDS011;6040;49.358;11.140;2022-08-03T06:34:33;6.77;;;3.50;;
11960;SDS011;6040;49.358;11.140;2022-08-03T06:37:00;5.43;;;4.07;;
11960;SDS011;6040;49.358;11.140;2022-08-03T06:39:26;7.07;;;3.80;;
11960;SDS011;6040;49.358;11.140;2022-08-03T06:41:53;5.30;;;3.60;;
11960;SDS011;6040;49.358;11.140;2022-08-03T06:44:20;9.18;;;3.67;;
11960;SDS011;6040;49.358;11.140;2022-08-03T06:46:48;6.82;;;3.75;;
11960;SDS011;6040;49.358;11.140;2022-08-03T06:49:15;7.18;;;3.67;;
11960;SDS011;6040;49.358;11.140;2022-08-03T06:51:42;5.65;;;3.13;;
11960;SDS011;6040;49.358;11.140;2022-08-03T06:54:09;5.18;;;3.28;;
11960;SDS011;6040;49.358;11.140;2022-08-03T06:56:36;3.78;;;2.90;;
11960;SDS011;6040;49.358;11.140;2022-08-03T06:59:03;4.22;;;3.08;;
11960;SDS011;6040;49.358;11.140;2022-08-03T07:01:30;4.32;;;2.80;;
11960;SDS011;6040;49.358;11.140;2022-08-03T07:03:58;4.30;;;3.00;;
11960;SDS011;6040;49.358;11.140;2022-08-03T07:06:25;6.68;;;3.10;;
11960;SDS011;6040;49.358;11.140;2022-08-03T07:08:52;7.13;;;3.10;;
11960;SDS011;6040;49.358;11.140;2022-08-03T07:11:20;5.38;;;3.10;;
11960;SDS011;6040;49.358;11.140;2022-08-03T07:13:47;12.05;;;3.00;;
11960;SDS011;6040;49.358;11.140;2022-08-03T07:16:15;5.22;;;2.95;;
11960;SDS011;6040;49.358;11.140;2022-08-03T07:18:42;6.07;;;3.00;;
11960;SDS011;6040;49.358;11.140;2022-08-03T07:21:10;6.57;;;2.70;;
11960;SDS011;6040;49.358;11.140;2022-08-03T07:23:37;3.28;;;2.88;;
11960;SDS011;6040;49.358;11.140;2022-08-03T07:26:04;4.75;;;2.42;;
11960;SDS011;6040;49.358;11.140;2022-08-03T07:28:32;3.50;;;2.30;;
11960;SDS011;6040;49.358;11.140;2022-08-03T07:30:59;2.60;;;2.40;;
11960;SDS011;6040;49.358;11.140;2022-08-03T07:33:26;2.60;;;2.40;;
11960;SDS011;6040;49.358;11.140;2022-08-03T07:35:53;5.18;;;2.63;;
11960;SDS011;6040;49.358;11.140;2022-08-03T07:38:22;7.32;;;2.95;;
11960;SDS011;6040;49.358;11.140;2022-08-03T07:40:49;8.82;;;2.60;;
11960;SDS011;6040;49.358;11.140;2022-08-03T07:43:16;4.60;;;2.70;;
11960;SDS011;6040;49.358;11.140;2022-08-03T07:45:44;3.60;;;2.50;;
11960;SDS011;6040;49.358;11.140;2022-08-03T07:48:11;4.88;;;2.60;;
11960;SDS011;6040;49.358;11.140;2022-08-03T07:50:39;4.88;;;2.40;;
11960;SDS011;6040;49.358;11.140;2022-08-03T07:53:06;4.28;;;2.28;;
11960;SDS011;6040;49.358;11.140;2022-08-03T07:55:34;2.60;;;2.40;;
11960;SDS011;6040;49.358;11.140;2022-08-03T07:58:02;5.97;;;2.67;;
11960;SDS011;6040;49.358;11.140;2022-08-03T08:00:30;4.95;;;2.63;;
11960;SDS011;6040;49.358;11.140;2022-08-03T08:02:58;5.60;;;2.30;;
11960;SDS011;6040;49.358;11.140;2022-08-03T08:05:24;5.22;;;2.35;;
11960;SDS011;6040;49.358;11.140;2022-08-03T08:07:52;4.22;;;2.45;;
11960;SDS011;6040;49.358;11.140;2022-08-03T08:10:19;6.32;;;2.22;;
11960;SDS011;6040;49.358;11.140;2022-08-03T08:12:48;2.83;;;2.35;;
11960;SDS011;6040;49.358;11.140;2022-08-03T08:15:15;2.55;;;2.20;;
11960;SDS011;6040;49.358;11.140;2022-08-03T08:17:42;2.20;;;2.00;;
11960;SDS011;6040;49.358;11.140;2022-08-03T08:20:11;3.28;;;2.13;;
11960;SDS011;6040;49.358;11.140;2022-08-03T08:22:41;2.45;;;2.25;;
11960;SDS011;6040;49.358;11.140;2022-08-03T08:25:08;3.15;;;2.20;;
11960;SDS011;6040;49.358;11.140;2022-08-03T08:27:39;4.40;;;2.22;;
11960;SDS011;6040;49.358;11.140;2022-08-03T08:30:09;3.60;;;2.15;;
11960;SDS011;6040;49.358;11.140;2022-08-03T08:32:37;3.25;;;2.20;;
11960;SDS011;6040;49.358;11.140;2022-08-03T08:35:04;4.03;;;2.40;;
11960;SDS011;6040;49.358;11.140;2022-08-03T08:37:32;2.13;;;1.92;;
11960;SDS011;6040;49.358;11.140;2022-08-03T08:39:59;5.78;;;1.92;;
11960;SDS011;6040;49.358;11.140;2022-08-03T08:42:27;2.13;;;1.90;;
11960;SDS011;6040;49.358;11.140;2022-08-03T08:44:54;4.38;;;2.15;;
11960;SDS011;6040;49.358;11.140;2022-08-03T08:47:23;2.92;;;2.00;;
11960;SDS011;6040;49.358;11.140;2022-08-03T08:49:51;2.72;;;1.98;;
11960;SDS011;6040;49.358;11.140;2022-08-03T08:52:19;2.15;;;2.05;;
11960;SDS011;6040;49.358;11.140;2022-08-03T08:54:50;2.17;;;1.98;;
11960;SDS011;6040;49.358;11.140;2022-08-03T08:57:20;3.28;;;2.10;;
11960;SDS011;6040;49.358;11.140;2022-08-03T08:59:50;4.93;;;2.20;;
11960;SDS011;6040;49.358;11.140;2022-08-03T09:02:20;2.13;;;1.90;;
11960;SDS011;6040;49.358;11.140;2022-08-03T09:04:49;2.92;;;2.03;;
11960;SDS011;6040;49.358;11.140;2022-08-03T09:07:17;3.55;;;1.85;;
11960;SDS011;6040;49.358;11.140;2022-08-03T09:09:44;2.30;;;2.00;;
11960;SDS011;6040;49.358;11.140;2022-08-03T09:12:11;6.47;;;1.92;;
11960;SDS011;6040;49.358;11.140;2022-08-03T09:14:37;5.28;;;2.15;;
11960;SDS011;6040;49.358;11.140;2022-08-03T09:17:04;2.92;;;1.77;;
11960;SDS011;6040;49.358;11.140;2022-08-03T09:19:34;2.20;;;1.83;;
11960;SDS011;6040;49.358;11.140;2022-08-03T09:22:08;2.28;;;2.08;;
11960;SDS011;6040;49.358;11.140;2022-08-03T09:24:36;2.35;;;2.15;;
11960;SDS011;6040;49.358;11.140;2022-08-03T09:27:05;1.95;;;1.80;;
11960;SDS011;6040;49.358;11.140;2022-08-03T09:29:37;2.10;;;1.55;;
11960;SDS011;6040;49.358;11.140;2022-08-03T09:32:04;3.25;;;1.90;;
11960;SDS011;6040;49.358;11.140;2022-08-03T09:34:31;1.75;;;1.60;;
11960;SDS011;6040;49.358;11.140;2022-08-03T09:37:00;1.67;;;1.58;;
11960;SDS011;6040;49.358;11.140;2022-08-03T09:39:27;2.08;;;1.80;;
11960;SDS011;6040;49.358;11.140;2022-08-03T09:42:05;2.58;;;1.70;;
11960;SDS011;6040;49.358;11.140;2022-08-03T09:44:33;2.20;;;1.50;;
11960;SDS011;6040;49.358;11.140;2022-08-03T09:47:02;1.58;;;1.50;;
11960;SDS011;6040;49.358;11.140;2022-08-03T09:49:30;3.33;;;1.85;;
11960;SDS011;6040;49.358;11.140;2022-08-03T09:52:00;1.60;;;1.50;;
11960;SDS011;6040;49.358;11.140;2022-08-03T09:54:40;1.60;;;1.20;;
11960;SDS011;6040;49.358;11.140;2022-08-03T09:57:09;1.50;;;1.40;;
11960;SDS011;6040;49.358;11.140;2022-08-03T09:59:47;1.42;;;1.33;;
11960;SDS011;6040;49.358;11.140;2022-08-03T10:02:20;1.70;;;1.60;;
11960;SDS011;6040;49.358;11.140;2022-08-03T10:04:48;1.40;;;1.30;;
11960;SDS011;6040;49.358;11.140;2022-08-03T10:07:18;1.60;;;1.50;;
11960;SDS011;6040;49.358;11.140;2022-08-03T10:09:53;1.23;;;1.20;;
11960;SDS011;6040;49.358;11.140;2022-08-03T10:12:21;1.20;;;1.10;;
11960;SDS011;6040;49.358;11.140;2022-08-03T10:14:48;2.78;;;1.27;;
11960;SDS011;6040;49.358;11.140;2022-08-03T10:17:16;1.30;;;1.20;;
11960;SDS011;6040;49.358;11.140;2022-08-03T10:19:43;2.83;;;1.20;;
11960;SDS011;6040;49.358;11.140;2022-08-03T10:22:11;1.30;;;1.20;;
11960;SDS011;6040;49.358;11.140;2022-08-03T10:24:43;1.65;;;1.40;;
11960;SDS011;6040;49.358;11.140;2022-08-03T10:27:14;1.48;;;1.38;;
11960;SDS011;6040;49.358;11.140;2022-08-03T10:29:44;1.60;;;1.50;;
11960;SDS011;6040;49.358;11.140;2022-08-03T10:32:17;1.40;;;1.30;;
11960;SDS011;6040;49.358;11.140;2022-08-03T10:34:46;1.45;;;1.35;;
11960;SDS011;6040;49.358;11.140;2022-08-03T10:37:16;1.40;;;1.30;;
11960;SDS011;6040;49.358;11.140;2022-08-03T10:39:45;2.08;;;1.40;;
11960;SDS011;6040;49.358;11.140;2022-08-03T10:42:20;1.50;;;1.40;;
11960;SDS011;6040;49.358;11.140;2022-08-03T10:44:49;1.52;;;1.40;;
11960;SDS011;6040;49.358;11.140;2022-08-03T10:47:21;1.30;;;1.20;;
11960;SDS011;6040;49.358;11.140;2022-08-03T10:49:48;2.15;;;1.30;;
11960;SDS011;6040;49.358;11.140;2022-08-03T10:52:15;2.30;;;1.33;;
11960;SDS011;6040;49.358;11.140;2022-08-03T10:54:43;1.52;;;1.17;;
11960;SDS011;6040;49.358;11.140;2022-08-03T10:57:45;2.58;;;1.50;;
11960;SDS011;6040;49.358;11.140;2022-08-03T11:00:17;1.67;;;1.35;;
11960;SDS011;6040;49.358;11.140;2022-08-03T11:03:04;1.40;;;1.30;;
11960;SDS011;6040;49.358;11.140;2022-08-03T11:05:33;1.58;;;1.20;;
11960;SDS011;6040;49.358;11.140;2022-08-03T11:08:21;1.40;;;1.20;;
11960;SDS011;6040;49.358;11.140;2022-08-03T11:11:00;2.25;;;1.23;;
11960;SDS011;6040;49.358;11.140;2022-08-03T11:13:30;2.45;;;1.25;;
11960;SDS011;6040;49.358;11.140;2022-08-03T11:15:59;1.55;;;1.30;;
11960;SDS011;6040;49.358;11.140;2022-08-03T11:18:54;1.20;;;1.20;;
11960;SDS011;6040;49.358;11.140;2022-08-03T11:21:26;1.40;;;1.30;;
11960;SDS011;6040;49.358;11.140;2022-08-03T11:27:23;3.70;;;1.30;;
11960;SDS011;6040;49.358;11.140;2022-08-03T11:29:57;2.58;;;1.40;;
11960;SDS011;6040;49.358;11.140;2022-08-03T11:35:17;1.30;;;1.20;;
11960;SDS011;6040;49.358;11.140;2022-08-03T11:40:35;1.30;;;1.20;;
11960;SDS011;6040;49.358;11.140;2022-08-03T11:43:04;1.55;;;1.42;;
11960;SDS011;6040;49.358;11.140;2022-08-03T11:45:34;1.20;;;1.10;;
11960;SDS011;6040;49.358;11.140;2022-08-03T11:48:11;1.40;;;1.30;;
11960;SDS011;6040;49.358;11.140;2022-08-03T11:50:40;2.58;;;1.48;;
11960;SDS011;6040;49.358;11.140;2022-08-03T11:53:12;1.40;;;1.30;;
11960;SDS011;6040;49.358;11.140;2022-08-03T11:55:41;1.58;;;1.20;;
11960;SDS011;6040;49.358;11.140;2022-08-03T11:58:14;3.10;;;1.50;;
11960;SDS011;6040;49.358;11.140;2022-08-03T12:00:43;2.92;;;1.40;;
11960;SDS011;6040;49.358;11.140;2022-08-03T12:03:11;1.42;;;1.33;;
11960;SDS011;6040;49.358;11.140;2022-08-03T12:05:44;1.30;;;1.20;;
11960;SDS011;6040;49.358;11.140;2022-08-03T12:08:14;1.63;;;1.52;;
11960;SDS011;6040;49.358;11.140;2022-08-03T12:10:45;2.65;;;1.48;;
11960;SDS011;6040;49.358;11.140;2022-08-03T12:13:14;3.60;;;1.38;;
11960;SDS011;6040;49.358;11.140;2022-08-03T12:15:43;2.55;;;1.38;;
11960;SDS011;6040;49.358;11.140;2022-08-03T12:18:17;1.58;;;1.20;;
11960;SDS011;6040;49.358;11.140;2022-08-03T12:20:46;1.45;;;1.35;;
11960;SDS011;6040;49.358;11.140;2022-08-03T12:23:13;1.30;;;1.20;;
11960;SDS011;6040;49.358;11.140;2022-08-03T12:25:41;1.40;;;1.30;;
11960;SDS011;6040;49.358;11.140;2022-08-03T12:28:10;2.00;;;1.20;;
11960;SDS011;6040;49.358;11.140;2022-08-03T12:30:44;1.35;;;1.25;;
11960;SDS011;6040;49.358;11.140;2022-08-03T12:33:13;2.22;;;1.35;;
11960;SDS011;6040;49.358;11.140;2022-08-03T12:35:41;1.33;;;1.23;;
11960;SDS011;6040;49.358;11.140;2022-08-03T12:38:09;2.08;;;1.35;;
11960;SDS011;6040;49.358;11.140;2022-08-03T12:40:36;1.95;;;1.38;;
11960;SDS011;6040;49.358;11.140;2022-08-03T12:43:09;1.50;;;1.40;;
11960;SDS011;6040;49.358;11.140;2022-08-03T12:45:37;1.50;;;1.40;;
11960;SDS011;6040;49.358;11.140;2022-08-03T12:48:07;1.98;;;1.20;;
11960;SDS011;6040;49.358;11.140;2022-08-03T12:50:35;1.60;;;1.40;;
11960;SDS011;6040;49.358;11.140;2022-08-03T12:53:03;1.48;;;1.30;;
11960;SDS011;6040;49.358;11.140;2022-08-03T12:55:31;1.40;;;1.30;;
11960;SDS011;6040;49.358;11.140;2022-08-03T12:58:00;2.00;;;1.25;;
11960;SDS011;6040;49.358;11.140;2022-08-03T13:00:28;1.50;;;1.40;;
11960;SDS011;6040;49.358;11.140;2022-08-03T13:02:59;2.08;;;1.42;;
11960;SDS011;6040;49.358;11.140;2022-08-03T13:05:29;2.55;;;1.20;;
11960;SDS011;6040;49.358;11.140;2022-08-03T13:07:56;1.40;;;1.30;;
11960;SDS011;6040;49.358;11.140;2022-08-03T13:10:27;1.50;;;1.40;;
11960;SDS011;6040;49.358;11.140;2022-08-03T13:12:55;4.43;;;1.25;;
11960;SDS011;6040;49.358;11.140;2022-08-03T13:15:24;3.38;;;1.30;;
11960;SDS011;6040;49.358;11.140;2022-08-03T13:17:53;1.27;;;1.20;;
11960;SDS011;6040;49.358;11.140;2022-08-03T13:20:20;1.40;;;1.30;;
11960;SDS011;6040;49.358;11.140;2022-08-03T13:22:49;1.33;;;1.23;;
11960;SDS011;6040;49.358;11.140;2022-08-03T13:25:16;1.85;;;1.30;;
11960;SDS011;6040;49.358;11.140;2022-08-03T13:27:44;1.50;;;1.40;;
11960;SDS011;6040;49.358;11.140;2022-08-03T13:30:12;1.50;;;1.40;;
11960;SDS011;6040;49.358;11.140;2022-08-03T13:32:39;1.35;;;1.25;;
11960;SDS011;6040;49.358;11.140;2022-08-03T13:35:07;3.05;;;1.60;;
11960;SDS011;6040;49.358;11.140;2022-08-03T13:37:34;2.72;;;1.38;;
11960;SDS011;6040;49.358;11.140;2022-08-03T13:40:03;2.05;;;1.40;;
11960;SDS011;6040;49.358;11.140;2022-08-03T13:42:32;2.08;;;1.40;;
11960;SDS011;6040;49.358;11.140;2022-08-03T13:45:01;1.45;;;1.20;;
11960;SDS011;6040;49.358;11.140;2022-08-03T13:47:28;1.50;;;1.40;;
11960;SDS011;6040;49.358;11.140;2022-08-03T13:49:55;5.72;;;1.33;;
11960;SDS011;6040;49.358;11.140;2022-08-03T13:52:22;1.35;;;1.25;;
11960;SDS011;6040;49.358;11.140;2022-08-03T13:54:49;1.50;;;1.40;;
11960;SDS011;6040;49.358;11.140;2022-08-03T13:57:17;1.20;;;1.17;;
11960;SDS011;6040;49.358;11.140;2022-08-03T13:59:44;5.30;;;1.30;;
11960;SDS011;6040;49.358;11.140;2022-08-03T14:02:11;1.65;;;1.42;;
11960;SDS011;6040;49.358;11.140;2022-08-03T14:04:38;1.58;;;1.30;;
11960;SDS011;6040;49.358;11.140;2022-08-03T14:07:05;1.92;;;1.30;;
11960;SDS011;6040;49.358;11.140;2022-08-03T14:09:32;1.33;;;1.30;;
11960;SDS011;6040;49.358;11.140;2022-08-03T14:11:59;3.97;;;1.40;;
11960;SDS011;6040;49.358;11.140;2022-08-03T14:14:27;3.45;;;1.30;;
11960;SDS011;6040;49.358;11.140;2022-08-03T14:16:54;1.35;;;1.25;;
11960;SDS011;6040;49.358;11.140;2022-08-03T14:19:21;10.43;;;1.20;;
11960;SDS011;6040;49.358;11.140;2022-08-03T14:21:48;1.40;;;1.30;;
11960;SDS011;6040;49.358;11.140;2022-08-03T14:24:15;2.10;;;1.40;;
11960;SDS011;6040;49.358;11.140;2022-08-03T14:26:41;1.25;;;1.15;;
11960;SDS011;6040;49.358;11.140;2022-08-03T14:29:08;2.55;;;1.50;;
11960;SDS011;6040;49.358;11.140;2022-08-03T14:31:37;3.60;;;1.70;;
11960;SDS011;6040;49.358;11.140;2022-08-03T14:34:04;1.45;;;1.30;;
11960;SDS011;6040;49.358;11.140;2022-08-03T14:36:31;1.35;;;1.23;;
11960;SDS011;6040;49.358;11.140;2022-08-03T14:38:58;1.40;;;1.30;;
11960;SDS011;6040;49.358;11.140;2022-08-03T14:41:25;1.23;;;1.13;;
11960;SDS011;6040;49.358;11.140;2022-08-03T14:43:52;2.28;;;1.30;;
11960;SDS011;6040;49.358;11.140;2022-08-03T14:46:20;3.05;;;1.38;;
11960;SDS011;6040;49.358;11.140;2022-08-03T14:48:49;1.85;;;1.40;;
11960;SDS011;6040;49.358;11.140;2022-08-03T14:51:16;1.38;;;1.27;;
11960;SDS011;6040;49.358;11.140;2022-08-03T14:53:43;1.50;;;1.40;;
11960;SDS011;6040;49.358;11.140;2022-08-03T14:56:10;3.05;;;1.30;;
11960;SDS011;6040;49.358;11.140;2022-08-03T14:58:37;1.90;;;1.25;;
11960;SDS011;6040;49.358;11.140;2022-08-03T15:01:04;3.65;;;1.30;;
11960;SDS011;6040;49.358;11.140;2022-08-03T15:03:32;1.48;;;1.30;;
11960;SDS011;6040;49.358;11.140;2022-08-03T15:06:00;2.83;;;1.40;;
11960;SDS011;6040;49.358;11.140;2022-08-03T15:08:27;1.88;;;1.45;;